createdAt,value
2019-04-05T00:00:15.127Z,9.83
2019-04-05T00:02:43.571Z,10.33
2019-04-05T00:05:12.446Z,10.20
2019-04-05T00:07:40.910Z,9.93
2019-04-05T00:10:10.411Z,9.53
2019-04-05T00:12:38.861Z,10.20
2019-04-05T00:15:15.026Z,10.77
2019-04-05T00:17:37.734Z,10.23
2019-04-05T00:20:08.375Z,10.33
2019-04-05T00:22:36.858Z,10.63
2019-04-05T00:25:06.638Z,9.77
2019-04-05T00:27:35.080Z,9.90
2019-04-05T00:30:04.519Z,10.10
2019-04-05T00:32:32.985Z,10.80
2019-04-05T00:35:01.455Z,10.00
2019-04-05T00:37:29.900Z,10.27
2019-04-05T00:39:58.327Z,10.10
2019-04-05T00:42:26.806Z,10.10
2019-04-05T00:44:55.272Z,10.67
2019-04-05T00:47:23.706Z,11.33
2019-04-05T00:49:52.177Z,11.03
2019-04-05T00:52:20.627Z,10.87
2019-04-05T00:54:49.117Z,9.77
2019-04-05T00:57:17.577Z,11.40
2019-04-05T00:59:46.057Z,10.10
2019-04-05T01:02:14.523Z,9.77
2019-04-05T01:04:42.972Z,10.80
2019-04-05T01:07:11.482Z,10.57
2019-04-05T01:09:39.954Z,10.13
2019-04-05T01:12:08.441Z,11.37
2019-04-05T01:14:38.014Z,10.87
2019-04-05T01:17:06.465Z,13.07
2019-04-05T01:19:35.507Z,13.60
2019-04-05T01:22:05.833Z,11.60
2019-04-05T01:24:34.632Z,10.83
2019-04-05T01:27:05.133Z,11.73
2019-04-05T01:29:33.625Z,10.80
2019-04-05T01:32:02.084Z,11.53
2019-04-05T01:34:30.619Z,11.97
2019-04-05T01:36:59.401Z,11.77
2019-04-05T01:39:27.831Z,10.93
2019-04-05T01:41:56.531Z,12.97
2019-04-05T01:44:25.670Z,11.80
2019-04-05T01:46:54.093Z,11.10
2019-04-05T01:49:22.548Z,10.97
2019-04-05T01:51:51.000Z,11.07
2019-04-05T01:54:19.481Z,11.13
2019-04-05T01:56:48.709Z,11.47
2019-04-05T01:59:17.176Z,11.63
2019-04-05T02:01:45.691Z,12.23
2019-04-05T02:04:14.133Z,12.63
2019-04-05T02:06:43.240Z,12.03
2019-04-05T02:09:12.441Z,11.77
2019-04-05T02:11:40.964Z,12.43
2019-04-05T02:14:09.476Z,11.83
2019-04-05T02:16:37.949Z,11.70
2019-04-05T02:19:06.485Z,11.17
2019-04-05T02:21:34.945Z,12.13
2019-04-05T02:24:03.418Z,13.00
2019-04-05T02:26:31.868Z,12.40
2019-04-05T02:29:00.340Z,12.17
2019-04-05T02:31:28.775Z,11.53
2019-04-05T02:33:57.309Z,11.80
2019-04-05T02:36:25.792Z,11.00
2019-04-05T02:38:54.214Z,12.33
2019-04-05T02:41:25.717Z,12.13
2019-04-05T02:43:56.081Z,12.70
2019-04-05T02:46:26.347Z,12.37
2019-04-05T02:48:55.950Z,11.63
2019-04-05T02:51:26.089Z,11.37
2019-04-05T02:53:57.451Z,11.67
2019-04-05T02:56:27.801Z,12.13
2019-04-05T02:58:56.501Z,11.93
2019-04-05T03:01:25.199Z,11.73
2019-04-05T03:03:53.674Z,13.07
2019-04-05T03:06:22.332Z,11.63
2019-04-05T03:08:51.756Z,12.93
2019-04-05T03:11:22.308Z,13.43
2019-04-05T03:13:54.188Z,12.77
2019-04-05T03:16:40.095Z,13.07
2019-04-05T03:19:08.093Z,12.97
2019-04-05T03:21:39.607Z,12.30
2019-04-05T03:24:10.332Z,13.07
2019-04-05T03:26:41.832Z,12.53
2019-04-05T03:29:10.944Z,12.80
2019-04-05T03:31:39.733Z,12.27
2019-04-05T03:34:08.931Z,13.07
2019-04-05T03:36:38.394Z,13.00
2019-04-05T03:39:07.466Z,12.50
2019-04-05T03:41:36.678Z,13.27
2019-04-05T03:44:06.265Z,12.83
2019-04-05T03:46:34.808Z,13.10
2019-04-05T03:49:05.001Z,13.23
2019-04-05T03:51:33.993Z,12.10
2019-04-05T03:54:02.714Z,13.97
2019-04-05T03:56:31.722Z,13.73
2019-04-05T03:59:00.330Z,13.37
2019-04-05T04:01:28.863Z,14.70
2019-04-05T04:03:57.489Z,13.97
2019-04-05T04:06:25.951Z,13.77
2019-04-05T04:08:54.448Z,13.30
2019-04-05T04:11:22.887Z,13.67
2019-04-05T04:13:51.492Z,14.10
2019-04-05T04:16:20.186Z,13.73
2019-04-05T04:18:49.390Z,13.17
2019-04-05T04:21:29.689Z,14.83
2019-04-05T04:23:58.591Z,12.03
2019-04-05T04:26:27.295Z,14.17
2019-04-05T04:28:55.811Z,13.53
2019-04-05T04:31:24.638Z,14.43
2019-04-05T04:33:53.671Z,13.23
2019-04-05T04:36:22.379Z,14.43
2019-04-05T04:38:51.316Z,13.50
2019-04-05T04:41:19.803Z,13.67
2019-04-05T04:43:48.698Z,14.43
2019-04-05T04:46:17.233Z,14.70
2019-04-05T04:48:45.743Z,12.67
2019-04-05T04:51:14.541Z,13.93
2019-04-05T04:53:43.662Z,13.10
2019-04-05T04:56:12.301Z,13.80
2019-04-05T04:58:40.762Z,14.20
2019-04-05T05:01:09.565Z,13.73
2019-04-05T05:03:38.379Z,13.97
2019-04-05T05:06:07.534Z,13.97
2019-04-05T05:08:36.057Z,13.50
2019-04-05T05:11:14.494Z,14.03
2019-04-05T05:13:35.431Z,17.03
2019-04-05T05:16:04.101Z,13.33
2019-04-05T05:18:32.719Z,13.57
2019-04-05T05:21:01.357Z,15.47
2019-04-05T05:23:30.075Z,14.63
2019-04-05T05:25:58.984Z,16.87
2019-04-05T05:28:27.483Z,27.70
2019-04-05T05:30:56.309Z,41.20
2019-04-05T05:33:24.906Z,15.63
2019-04-05T05:35:53.353Z,15.30
2019-04-05T05:38:21.923Z,13.90
2019-04-05T05:40:50.378Z,15.03
2019-04-05T05:43:18.879Z,18.63
2019-04-05T05:45:47.353Z,16.43
2019-04-05T05:48:16.549Z,14.90
2019-04-05T05:50:45.088Z,16.80
2019-04-05T05:53:13.823Z,15.70
2019-04-05T05:55:42.283Z,14.70
2019-04-05T05:58:10.767Z,15.37
2019-04-05T06:00:39.287Z,14.63
2019-04-05T06:03:10.807Z,14.57
2019-04-05T06:05:37.918Z,14.60
2019-04-05T06:08:06.399Z,14.10
2019-04-05T06:10:34.841Z,15.20
2019-04-05T06:13:06.664Z,14.93
2019-04-05T06:15:33.497Z,15.97
2019-04-05T06:18:04.781Z,15.87
2019-04-05T06:20:32.127Z,19.87
2019-04-05T06:23:00.601Z,20.77
2019-04-05T06:25:29.054Z,22.53
2019-04-05T06:27:59.807Z,21.17
2019-04-05T06:32:57.949Z,24.50
2019-04-05T06:35:26.405Z,26.03
2019-04-05T06:35:39.483Z,23.17
2019-04-05T06:37:54.854Z,26.60
2019-04-05T06:40:23.335Z,30.13
2019-04-05T06:42:51.809Z,30.33
2019-04-05T06:45:20.293Z,29.47
2019-04-05T06:47:48.773Z,31.27
2019-04-05T06:50:17.354Z,32.83
2019-04-05T06:52:45.840Z,34.00
2019-04-05T06:55:14.293Z,33.63
2019-04-05T06:57:42.772Z,31.73
2019-04-05T07:00:11.267Z,33.70
2019-04-05T07:02:39.740Z,31.83
2019-04-05T07:05:08.541Z,34.60
2019-04-05T07:07:37.025Z,33.17
2019-04-05T07:10:06.238Z,34.43
2019-04-05T07:12:34.709Z,35.07
2019-04-05T07:15:03.363Z,33.50
2019-04-05T07:17:31.847Z,32.90
2019-04-05T07:20:00.391Z,34.77
2019-04-05T07:22:38.463Z,35.07
2019-04-05T07:24:59.033Z,37.47
2019-04-05T07:27:27.558Z,35.03
2019-04-05T07:29:56.049Z,33.30
2019-04-05T07:32:24.507Z,35.07
2019-04-05T07:34:52.952Z,34.00
2019-04-05T07:37:21.407Z,36.47
2019-04-05T07:39:49.902Z,36.50
2019-04-05T07:42:18.390Z,33.30
2019-04-05T07:44:46.846Z,36.30
2019-04-05T07:47:15.318Z,37.40
2019-04-05T07:49:43.789Z,35.10
2019-04-05T07:52:13.182Z,35.63
2019-04-05T07:54:41.701Z,34.67
2019-04-05T07:57:10.240Z,34.37
2019-04-05T07:59:38.671Z,33.43
2019-04-05T08:02:07.131Z,33.47
2019-04-05T08:04:35.584Z,34.23
2019-04-05T08:07:05.595Z,34.87
2019-04-05T08:09:36.880Z,34.10
2019-04-05T08:12:06.153Z,35.97
2019-04-05T08:14:37.323Z,35.80
2019-04-05T08:17:05.787Z,35.23
2019-04-05T08:19:34.226Z,34.53
2019-04-05T08:22:02.713Z,35.57
2019-04-05T08:24:31.170Z,37.47
2019-04-05T08:26:59.626Z,35.93
2019-04-05T08:29:28.093Z,35.07
2019-04-05T08:31:56.531Z,35.53
2019-04-05T08:34:24.983Z,34.37
2019-04-05T08:36:53.449Z,38.07
2019-04-05T08:39:21.883Z,34.60
2019-04-05T08:41:50.366Z,35.37
2019-04-05T08:44:18.809Z,36.40
2019-04-05T08:46:47.292Z,36.63
2019-04-05T08:49:15.768Z,36.97
2019-04-05T08:51:44.210Z,35.43
2019-04-05T08:54:12.683Z,36.97
2019-04-05T08:56:41.261Z,36.60
2019-04-05T08:59:09.723Z,39.23
2019-04-05T09:01:38.193Z,39.53
2019-04-05T09:04:06.641Z,43.43
2019-04-05T09:06:35.109Z,40.93
2019-04-05T09:09:05.638Z,40.63
2019-04-05T09:11:34.180Z,41.07
2019-04-05T09:14:02.617Z,41.13
2019-04-05T09:16:31.062Z,40.13
2019-04-05T09:18:59.543Z,40.10
2019-04-05T09:21:28.032Z,40.43
2019-04-05T09:23:59.084Z,39.43
2019-04-05T09:26:26.640Z,41.43
2019-04-05T09:28:55.099Z,42.27
2019-04-05T09:31:23.558Z,42.23
2019-04-05T09:33:51.986Z,41.97
2019-04-05T09:36:20.464Z,44.87
2019-04-05T09:38:49.766Z,44.87
2019-04-05T09:41:18.236Z,45.33
2019-04-05T09:43:46.707Z,44.27
2019-04-05T09:46:15.156Z,48.20
2019-04-05T09:48:43.598Z,44.43
2019-04-05T09:51:12.056Z,43.83
2019-04-05T09:53:40.525Z,43.60
2019-04-05T09:56:08.967Z,43.90
2019-04-05T09:58:37.782Z,44.93
2019-04-05T10:01:06.332Z,44.07
2019-04-05T10:03:34.810Z,45.47
2019-04-05T10:06:03.629Z,45.70
2019-04-05T10:08:32.063Z,46.17
2019-04-05T10:11:00.895Z,47.77
2019-04-05T10:13:29.360Z,47.50
2019-04-05T10:15:57.848Z,48.23
2019-04-05T10:18:26.336Z,51.90
2019-04-05T10:20:54.759Z,50.83
2019-04-05T10:23:23.227Z,46.40
2019-04-05T10:25:51.671Z,44.27
2019-04-05T10:28:20.105Z,47.27
2019-04-05T10:30:48.582Z,44.37
2019-04-05T10:33:17.035Z,45.13
2019-04-05T10:35:45.523Z,46.20
2019-04-05T10:38:13.958Z,46.37
2019-04-05T10:40:42.430Z,48.60
2019-04-05T10:43:11.173Z,45.57
2019-04-05T10:45:39.633Z,46.37
2019-04-05T10:48:08.093Z,48.60
2019-04-05T10:50:36.539Z,47.00
2019-04-05T10:53:05.061Z,50.20
2019-04-05T10:55:33.520Z,51.07
2019-04-05T10:58:02.005Z,50.50
2019-04-05T11:00:30.636Z,51.93
2019-04-05T11:02:59.083Z,51.87
2019-04-05T11:05:27.635Z,50.53
2019-04-05T11:07:56.109Z,47.07
2019-04-05T11:10:24.551Z,47.17
2019-04-05T11:12:53.045Z,44.77
2019-04-05T11:15:21.557Z,47.90
2019-04-05T11:17:50.191Z,43.77
2019-04-05T11:20:22.362Z,42.40
2019-04-05T11:22:50.079Z,42.63
2019-04-05T11:25:20.890Z,40.97
2019-04-05T11:27:49.655Z,36.37
2019-04-05T11:30:23.834Z,35.07
2019-04-05T11:32:52.269Z,33.00
2019-04-05T11:35:20.733Z,32.33
2019-04-05T11:37:50.651Z,33.00
2019-04-05T11:40:19.537Z,30.20
2019-04-05T11:42:49.552Z,31.73
2019-04-05T11:45:18.009Z,29.87
2019-04-05T11:47:47.080Z,31.77
2019-04-05T11:50:15.713Z,32.03
2019-04-05T11:52:44.203Z,33.10
2019-04-05T11:55:12.998Z,32.47
2019-04-05T11:57:42.046Z,33.03
2019-04-05T12:00:14.444Z,32.47
2019-04-05T12:02:44.575Z,32.93
2019-04-05T12:05:14.682Z,34.57
2019-04-05T12:07:43.162Z,32.97
2019-04-05T12:10:12.246Z,34.80
2019-04-05T12:12:40.767Z,35.47
2019-04-05T12:15:09.371Z,34.33
2019-04-05T12:17:37.908Z,31.93
2019-04-05T12:20:07.632Z,33.13
2019-04-05T12:22:36.064Z,33.23
2019-04-05T12:25:07.322Z,30.73
2019-04-05T12:27:36.229Z,34.03
2019-04-05T12:30:06.559Z,33.27
2019-04-05T12:32:41.080Z,33.80
2019-04-05T12:35:08.485Z,37.83
2019-04-05T12:37:49.626Z,33.73
2019-04-05T12:40:10.247Z,31.67
2019-04-05T12:42:38.273Z,33.93
2019-04-05T12:45:07.871Z,35.13
2019-04-05T12:47:36.429Z,33.40
2019-04-05T12:50:07.400Z,35.57
2019-04-05T12:52:35.968Z,33.40
2019-04-05T12:55:06.038Z,31.97
2019-04-05T12:57:34.548Z,32.40
2019-04-05T13:00:04.611Z,33.20
2019-04-05T13:02:34.079Z,32.53
2019-04-05T13:05:03.105Z,32.03
2019-04-05T13:07:34.791Z,32.53
2019-04-05T13:10:01.763Z,32.77
2019-04-05T13:12:30.250Z,32.30
2019-04-05T13:15:11.168Z,33.60
2019-04-05T13:17:31.055Z,32.53
2019-04-05T13:20:00.921Z,34.83
2019-04-05T13:22:32.203Z,34.33
2019-04-05T13:24:59.603Z,34.00
2019-04-05T13:27:28.092Z,31.30
2019-04-05T13:29:56.553Z,30.53
2019-04-05T13:32:25.151Z,32.30
2019-04-05T13:34:55.813Z,31.70
2019-04-05T13:37:23.886Z,32.93
2019-04-05T13:39:52.334Z,31.97
2019-04-05T13:42:20.789Z,32.43
2019-04-05T13:44:49.267Z,31.60
2019-04-05T13:47:17.764Z,31.63
2019-04-05T13:49:46.214Z,31.27
2019-04-05T13:52:14.654Z,33.30
2019-04-05T13:54:43.153Z,33.60
2019-04-05T13:57:11.718Z,33.23
2019-04-05T13:59:40.194Z,32.07
2019-04-05T14:02:08.657Z,34.93
2019-04-05T14:04:37.218Z,34.20
2019-04-05T14:07:06.309Z,34.47
2019-04-05T14:09:34.783Z,32.53
2019-04-05T14:12:04.058Z,34.53
2019-04-05T14:14:32.506Z,31.47
2019-04-05T14:17:00.994Z,34.10
2019-04-05T14:19:29.491Z,32.77
2019-04-05T14:22:07.777Z,33.40
2019-04-05T14:24:28.128Z,32.70
2019-04-05T14:26:56.673Z,33.30
2019-04-05T14:29:25.114Z,32.87
2019-04-05T14:31:53.593Z,32.57
2019-04-05T14:34:23.700Z,34.97
2019-04-05T14:36:52.444Z,33.40
2019-04-05T14:39:20.989Z,31.17
2019-04-05T14:41:49.433Z,31.43
2019-04-05T14:44:17.901Z,33.07
2019-04-05T14:46:46.348Z,33.63
2019-04-05T14:49:14.825Z,32.37
2019-04-05T14:51:52.405Z,32.60
2019-04-05T14:54:13.466Z,33.20
2019-04-05T14:56:41.921Z,33.77
2019-04-05T14:59:10.373Z,33.43
2019-04-05T15:01:38.918Z,33.87
2019-04-05T15:04:07.441Z,32.60
2019-04-05T15:06:35.944Z,34.40
2019-04-05T15:09:06.392Z,33.13
2019-04-05T15:11:34.877Z,33.33
2019-04-05T15:14:03.875Z,32.83
2019-04-05T15:16:32.335Z,34.53
2019-04-05T15:19:00.797Z,33.67
2019-04-05T15:21:29.281Z,33.27
2019-04-05T15:23:57.754Z,33.57
2019-04-05T15:26:26.239Z,32.67
2019-04-05T15:28:55.704Z,32.87
2019-04-05T15:31:26.502Z,33.27
2019-04-05T15:33:55.591Z,32.70
2019-04-05T15:36:24.646Z,32.23
2019-04-05T15:38:53.146Z,33.03
2019-04-05T15:41:22.012Z,35.30
2019-04-05T15:43:50.562Z,31.93
2019-04-05T15:46:19.183Z,33.60
2019-04-05T15:48:49.654Z,33.63
2019-04-05T15:51:17.875Z,35.60
2019-04-05T15:53:46.342Z,32.47
2019-04-05T15:56:14.824Z,33.90
2019-04-05T15:58:43.273Z,32.80
2019-04-05T16:01:11.948Z,34.57
2019-04-05T16:03:40.419Z,32.17
2019-04-05T16:06:08.932Z,34.50
2019-04-05T16:08:37.545Z,33.07
2019-04-05T16:11:06.079Z,33.67
2019-04-05T16:13:34.531Z,33.77
2019-04-05T16:16:03.003Z,32.53
2019-04-05T16:18:31.456Z,32.23
2019-04-05T16:20:59.981Z,34.83
2019-04-05T16:23:28.478Z,33.50
2019-04-05T16:25:56.943Z,33.50
2019-04-05T16:28:25.433Z,32.33
2019-04-05T16:30:53.900Z,33.10
2019-04-05T16:33:22.376Z,31.93
2019-04-05T16:35:50.936Z,33.50
2019-04-05T16:38:19.440Z,33.40
2019-04-05T16:40:47.886Z,33.03
2019-04-05T16:43:16.362Z,33.27
2019-04-05T16:45:44.825Z,31.77
2019-04-05T16:48:13.323Z,31.70
2019-04-05T16:50:42.423Z,33.50
2019-04-05T16:53:11.023Z,34.70
2019-04-05T16:55:39.498Z,41.80
2019-04-05T16:58:07.973Z,32.13
2019-04-05T17:00:36.451Z,34.90
2019-04-05T17:03:04.903Z,31.63
2019-04-05T17:05:33.347Z,32.37
2019-04-05T17:08:01.830Z,32.07
2019-04-05T17:10:30.293Z,30.13
2019-04-05T17:12:58.793Z,33.33
2019-04-05T17:15:27.256Z,32.43
2019-04-05T17:17:55.749Z,32.50
2019-04-05T17:20:24.239Z,33.50
2019-04-05T17:22:58.497Z,33.03
2019-04-05T17:25:22.897Z,33.67
2019-04-05T17:27:51.346Z,30.87
2019-04-05T17:30:19.816Z,33.90
2019-04-05T17:32:48.936Z,32.60
2019-04-05T17:35:18.178Z,34.80
2019-04-05T17:37:46.816Z,32.30
2019-04-05T17:40:15.610Z,33.20
2019-04-05T17:42:44.108Z,33.63
2019-04-05T17:45:12.822Z,33.77
2019-04-05T17:47:41.287Z,34.10
2019-04-05T17:50:12.808Z,33.00
2019-04-05T17:52:41.323Z,35.77
2019-04-05T17:55:09.899Z,33.87
2019-04-05T17:57:38.321Z,33.37
2019-04-05T18:00:09.565Z,34.37
2019-04-05T18:02:38.110Z,34.53
2019-04-05T18:05:07.492Z,34.27
2019-04-05T18:07:35.961Z,32.70
2019-04-05T18:10:05.772Z,31.97
2019-04-05T18:12:34.269Z,31.87
2019-04-05T18:15:02.743Z,32.27
2019-04-05T18:17:31.333Z,30.43
2019-04-05T18:19:59.775Z,32.63
2019-04-05T18:22:28.604Z,32.20
2019-04-05T18:24:57.049Z,34.37
2019-04-05T18:27:25.570Z,32.20
2019-04-05T18:29:54.069Z,33.40
2019-04-05T18:32:22.650Z,32.27
2019-04-05T18:34:51.095Z,33.43
2019-04-05T18:37:19.545Z,37.47
2019-04-05T18:39:48.054Z,33.17
2019-04-05T18:42:16.642Z,32.93
2019-04-05T18:44:45.304Z,31.83
2019-04-05T18:47:13.771Z,34.10
2019-04-05T18:49:42.264Z,33.30
2019-04-05T18:52:10.706Z,32.37
2019-04-05T18:54:39.142Z,32.33
2019-04-05T18:57:07.638Z,33.33
2019-04-05T18:59:36.082Z,31.67
2019-04-05T19:02:04.599Z,34.17
2019-04-05T19:04:33.091Z,32.77
2019-04-05T19:07:01.523Z,33.20
2019-04-05T19:09:29.976Z,34.40
2019-04-05T19:11:58.452Z,33.53
2019-04-05T19:14:26.896Z,34.07
2019-04-05T19:16:55.365Z,32.60
2019-04-05T19:19:23.844Z,32.53
2019-04-05T19:21:52.346Z,31.13
2019-04-05T19:24:20.777Z,35.67
2019-04-05T19:26:49.222Z,32.00
2019-04-05T19:29:17.705Z,35.47
2019-04-05T19:49:17.521Z,32.27
2019-04-05T19:51:45.983Z,33.77
2019-04-05T19:54:14.479Z,32.23
2019-04-05T19:56:42.937Z,32.07
2019-04-05T19:59:11.407Z,34.57
2019-04-05T20:01:39.889Z,33.00
2019-04-05T20:04:08.338Z,32.10
2019-04-05T20:06:36.784Z,33.00
2019-04-05T20:09:07.309Z,31.97
2019-04-05T20:11:35.758Z,33.60
2019-04-05T20:14:04.300Z,33.33
2019-04-05T20:16:32.787Z,33.53
2019-04-05T20:19:01.183Z,31.47
2019-04-05T20:21:29.663Z,34.93
2019-04-05T20:23:58.132Z,35.00
2019-04-05T20:26:26.624Z,34.10
2019-04-05T20:28:55.069Z,34.23
2019-04-05T20:31:23.508Z,32.03
2019-04-05T20:33:52.026Z,33.10
2019-04-05T20:36:20.469Z,32.27
2019-04-05T20:38:48.928Z,33.97
2019-04-05T20:41:17.371Z,33.03
2019-04-05T20:43:45.852Z,47.50
2019-04-05T20:46:14.295Z,34.67
2019-04-05T20:48:42.757Z,35.97
2019-04-05T20:51:11.230Z,34.00
2019-04-05T20:53:39.671Z,32.00
2019-04-05T20:56:08.157Z,31.63
2019-04-05T20:58:36.626Z,33.17
2019-04-05T21:01:05.090Z,33.87
2019-04-05T21:03:33.560Z,34.40
2019-04-05T21:06:02.047Z,34.13
2019-04-05T21:08:30.479Z,32.40
2019-04-05T21:10:58.963Z,32.83
2019-04-05T21:13:27.452Z,33.17
2019-04-05T21:15:55.901Z,32.90
2019-04-05T21:18:24.378Z,30.87
2019-04-05T21:20:52.941Z,32.00
2019-04-05T21:23:21.368Z,32.13
2019-04-05T21:25:49.868Z,32.70
2019-04-05T21:28:18.353Z,32.07
2019-04-05T21:30:46.784Z,31.67
2019-04-05T21:33:15.251Z,31.40
2019-04-05T21:35:45.788Z,31.70
2019-04-05T21:38:13.845Z,35.73
2019-04-05T21:40:42.330Z,33.23
2019-04-05T21:43:10.770Z,32.93
2019-04-05T21:45:39.222Z,32.40
2019-04-05T21:48:07.723Z,33.47
2019-04-05T21:50:36.167Z,31.67
2019-04-05T21:53:04.609Z,31.80
2019-04-05T21:55:33.089Z,32.80
2019-04-05T21:58:01.554Z,33.03
2019-04-05T22:00:51.435Z,34.57
2019-04-05T22:03:19.864Z,33.30
2019-04-05T22:05:48.334Z,33.57
2019-04-05T22:08:16.836Z,34.80
2019-04-05T22:10:45.238Z,35.60
2019-04-05T22:13:13.709Z,35.17
2019-04-05T22:15:42.156Z,42.67
2019-04-05T22:18:10.610Z,34.83
2019-04-05T22:20:39.064Z,35.13
2019-04-05T22:23:07.525Z,35.33
2019-04-05T22:25:35.969Z,34.23
2019-04-05T22:28:04.448Z,35.60
2019-04-05T22:30:32.906Z,34.67
2019-04-05T22:33:01.370Z,33.90
2019-04-05T22:35:29.805Z,34.23
2019-04-05T22:37:58.244Z,34.43
2019-04-05T22:40:26.710Z,35.67
2019-04-05T22:42:55.189Z,34.30
2019-04-05T22:45:23.630Z,33.33
2019-04-05T22:47:52.074Z,35.60
2019-04-05T22:50:20.540Z,33.43
2019-04-05T22:52:49.016Z,33.70
2019-04-05T22:55:17.464Z,33.40
2019-04-05T22:57:45.973Z,34.53
2019-04-05T23:00:14.564Z,33.63
2019-04-05T23:02:43.034Z,33.63
2019-04-05T23:05:11.783Z,34.57
2019-04-05T23:07:40.260Z,34.33
2019-04-05T23:10:10.094Z,35.90
2019-04-05T23:12:38.530Z,33.47
2019-04-05T23:15:08.840Z,33.43
2019-04-05T23:17:37.318Z,33.67
2019-04-05T23:20:06.662Z,35.87
2019-04-05T23:22:35.137Z,35.57
2019-04-05T23:25:04.761Z,35.53
2019-04-05T23:27:33.244Z,33.07
2019-04-05T23:30:01.762Z,34.13
2019-04-05T23:32:30.222Z,34.80
2019-04-05T23:34:58.724Z,35.63
2019-04-05T23:37:27.157Z,35.07
2019-04-05T23:39:55.621Z,36.17
2019-04-05T23:42:24.096Z,36.30
2019-04-05T23:44:52.534Z,35.13
2019-04-05T23:47:21.173Z,33.80
2019-04-05T23:49:49.633Z,34.60
2019-04-05T23:52:18.138Z,33.43
2019-04-05T23:54:46.557Z,32.33
2019-04-05T23:57:15.032Z,33.57
2019-04-05T23:59:43.501Z,31.37
